sensor_id;sensor_type;location;lat;lon;timestamp;P1;durP1;ratioP1;P2;durP2;ratioP2
35578;SDS011;21687;48.900;9.188;2022-08-25T00:01:19;3.00;;;2.70;;
35578;SDS011;21687;48.900;9.188;2022-08-25T00:03:50;3.30;;;3.00;;
35578;SDS011;21687;48.900;9.188;2022-08-25T00:06:17;3.93;;;2.90;;
35578;SDS011;21687;48.900;9.188;2022-08-25T00:08:45;3.40;;;3.10;;
35578;SDS011;21687;48.900;9.188;2022-08-25T00:11:13;6.10;;;4.50;;
35578;SDS011;21687;48.900;9.188;2022-08-25T00:13:46;3.70;;;3.40;;
35578;SDS011;21687;48.900;9.188;2022-08-25T00:16:15;3.00;;;2.80;;
35578;SDS011;21687;48.900;9.188;2022-08-25T00:18:44;4.27;;;2.80;;
35578;SDS011;21687;48.900;9.188;2022-08-25T00:21:12;3.33;;;3.03;;
35578;SDS011;21687;48.900;9.188;2022-08-25T00:23:39;3.30;;;3.00;;
35578;SDS011;21687;48.900;9.188;2022-08-25T00:26:06;2.87;;;2.67;;
35578;SDS011;21687;48.900;9.188;2022-08-25T00:28:33;3.23;;;2.93;;
35578;SDS011;21687;48.900;9.188;2022-08-25T00:31:00;3.10;;;2.90;;
35578;SDS011;21687;48.900;9.188;2022-08-25T00:33:28;4.20;;;2.70;;
35578;SDS011;21687;48.900;9.188;2022-08-25T00:35:57;3.40;;;3.10;;
35578;SDS011;21687;48.900;9.188;2022-08-25T00:38:25;3.50;;;3.20;;
35578;SDS011;21687;48.900;9.188;2022-08-25T00:40:52;3.67;;;3.10;;
35578;SDS011;21687;48.900;9.188;2022-08-25T00:43:52;3.27;;;3.07;;
35578;SDS011;21687;48.900;9.188;2022-08-25T00:46:34;4.63;;;3.10;;
35578;SDS011;21687;48.900;9.188;2022-08-25T00:49:09;3.20;;;2.90;;
35578;SDS011;21687;48.900;9.188;2022-08-25T00:51:41;3.10;;;2.90;;
35578;SDS011;21687;48.900;9.188;2022-08-25T00:54:22;3.27;;;2.97;;
35578;SDS011;21687;48.900;9.188;2022-08-25T00:56:51;3.17;;;2.87;;
35578;SDS011;21687;48.900;9.188;2022-08-25T00:59:19;3.53;;;3.23;;
35578;SDS011;21687;48.900;9.188;2022-08-25T01:01:47;3.13;;;2.83;;
35578;SDS011;21687;48.900;9.188;2022-08-25T01:04:14;3.10;;;2.90;;
35578;SDS011;21687;48.900;9.188;2022-08-25T01:06:42;3.27;;;3.07;;
35578;SDS011;21687;48.900;9.188;2022-08-25T01:09:09;2.97;;;2.77;;
35578;SDS011;21687;48.900;9.188;2022-08-25T01:11:40;4.30;;;3.90;;
35578;SDS011;21687;48.900;9.188;2022-08-25T01:14:08;3.70;;;3.40;;
35578;SDS011;21687;48.900;9.188;2022-08-25T01:16:38;3.10;;;2.90;;
35578;SDS011;21687;48.900;9.188;2022-08-25T01:19:07;3.50;;;3.20;;
35578;SDS011;21687;48.900;9.188;2022-08-25T01:21:41;3.50;;;3.20;;
35578;SDS011;21687;48.900;9.188;2022-08-25T01:24:10;3.60;;;3.30;;
35578;SDS011;21687;48.900;9.188;2022-08-25T01:26:44;3.57;;;3.10;;
35578;SDS011;21687;48.900;9.188;2022-08-25T01:29:10;3.70;;;3.10;;
35578;SDS011;21687;48.900;9.188;2022-08-25T01:31:46;3.40;;;3.10;;
35578;SDS011;21687;48.900;9.188;2022-08-25T01:34:15;3.60;;;3.30;;
35578;SDS011;21687;48.900;9.188;2022-08-25T01:36:43;3.63;;;3.33;;
35578;SDS011;21687;48.900;9.188;2022-08-25T01:39:10;4.27;;;3.03;;
35578;SDS011;21687;48.900;9.188;2022-08-25T01:44:27;4.40;;;4.00;;
35578;SDS011;21687;48.900;9.188;2022-08-25T01:46:54;3.97;;;3.60;;
35578;SDS011;21687;48.900;9.188;2022-08-25T01:49:20;4.67;;;3.70;;
35578;SDS011;21687;48.900;9.188;2022-08-25T01:51:48;3.40;;;3.10;;
35578;SDS011;21687;48.900;9.188;2022-08-25T01:54:21;3.77;;;3.47;;
35578;SDS011;21687;48.900;9.188;2022-08-25T01:56:47;3.90;;;3.50;;
35578;SDS011;21687;48.900;9.188;2022-08-25T01:59:14;5.37;;;3.47;;
35578;SDS011;21687;48.900;9.188;2022-08-25T02:01:42;5.90;;;3.93;;
35578;SDS011;21687;48.900;9.188;2022-08-25T02:04:09;3.90;;;3.60;;
35578;SDS011;21687;48.900;9.188;2022-08-25T02:06:36;4.33;;;3.93;;
35578;SDS011;21687;48.900;9.188;2022-08-25T02:09:07;3.37;;;3.07;;
35578;SDS011;21687;48.900;9.188;2022-08-25T02:11:37;3.63;;;3.33;;
35578;SDS011;21687;48.900;9.188;2022-08-25T02:14:07;3.53;;;3.23;;
35578;SDS011;21687;48.900;9.188;2022-08-25T02:16:36;4.60;;;3.20;;
35578;SDS011;21687;48.900;9.188;2022-08-25T02:19:05;3.80;;;3.50;;
35578;SDS011;21687;48.900;9.188;2022-08-25T02:21:34;3.90;;;3.50;;
35578;SDS011;21687;48.900;9.188;2022-08-25T02:24:00;3.13;;;2.93;;
35578;SDS011;21687;48.900;9.188;2022-08-25T02:26:27;4.00;;;3.50;;
35578;SDS011;21687;48.900;9.188;2022-08-25T02:28:54;4.00;;;3.70;;
35578;SDS011;21687;48.900;9.188;2022-08-25T02:31:21;3.87;;;3.57;;
35578;SDS011;21687;48.900;9.188;2022-08-25T02:33:50;4.27;;;3.80;;
35578;SDS011;21687;48.900;9.188;2022-08-25T02:36:17;3.73;;;3.43;;
35578;SDS011;21687;48.900;9.188;2022-08-25T02:38:44;3.80;;;3.50;;
35578;SDS011;21687;48.900;9.188;2022-08-25T02:41:12;3.80;;;3.50;;
35578;SDS011;21687;48.900;9.188;2022-08-25T02:43:41;4.87;;;3.80;;
35578;SDS011;21687;48.900;9.188;2022-08-25T02:46:08;4.43;;;3.70;;
35578;SDS011;21687;48.900;9.188;2022-08-25T02:48:35;5.80;;;3.43;;
35578;SDS011;21687;48.900;9.188;2022-08-25T02:51:02;4.13;;;3.67;;
35578;SDS011;21687;48.900;9.188;2022-08-25T02:53:30;3.90;;;3.60;;
35578;SDS011;21687;48.900;9.188;2022-08-25T02:55:57;5.03;;;4.50;;
35578;SDS011;21687;48.900;9.188;2022-08-25T02:58:23;4.60;;;4.17;;
35578;SDS011;21687;48.900;9.188;2022-08-25T03:00:50;5.23;;;4.13;;
35578;SDS011;21687;48.900;9.188;2022-08-25T03:03:17;4.47;;;4.07;;
35578;SDS011;21687;48.900;9.188;2022-08-25T03:05:44;5.27;;;4.17;;
35578;SDS011;21687;48.900;9.188;2022-08-25T03:08:11;4.00;;;3.57;;
35578;SDS011;21687;48.900;9.188;2022-08-25T03:10:37;5.77;;;4.30;;
35578;SDS011;21687;48.900;9.188;2022-08-25T03:13:04;4.20;;;3.80;;
35578;SDS011;21687;48.900;9.188;2022-08-25T03:15:30;4.43;;;4.03;;
35578;SDS011;21687;48.900;9.188;2022-08-25T03:17:57;4.77;;;4.30;;
35578;SDS011;21687;48.900;9.188;2022-08-25T03:20:25;4.83;;;4.03;;
35578;SDS011;21687;48.900;9.188;2022-08-25T03:22:51;4.60;;;4.20;;
35578;SDS011;21687;48.900;9.188;2022-08-25T03:25:18;4.30;;;3.90;;
35578;SDS011;21687;48.900;9.188;2022-08-25T03:28:03;4.33;;;3.93;;
35578;SDS011;21687;48.900;9.188;2022-08-25T03:30:30;4.27;;;3.90;;
35578;SDS011;21687;48.900;9.188;2022-08-25T03:32:57;5.33;;;3.80;;
35578;SDS011;21687;48.900;9.188;2022-08-25T03:35:23;4.80;;;4.27;;
35578;SDS011;21687;48.900;9.188;2022-08-25T03:37:49;4.63;;;4.23;;
35578;SDS011;21687;48.900;9.188;2022-08-25T03:40:19;7.60;;;5.97;;
35578;SDS011;21687;48.900;9.188;2022-08-25T03:42:46;5.50;;;4.90;;
35578;SDS011;21687;48.900;9.188;2022-08-25T03:45:12;5.30;;;4.73;;
35578;SDS011;21687;48.900;9.188;2022-08-25T03:47:40;4.60;;;4.20;;
35578;SDS011;21687;48.900;9.188;2022-08-25T03:50:07;7.63;;;4.97;;
35578;SDS011;21687;48.900;9.188;2022-08-25T03:52:35;5.00;;;4.27;;
35578;SDS011;21687;48.900;9.188;2022-08-25T03:55:02;4.97;;;4.47;;
35578;SDS011;21687;48.900;9.188;2022-08-25T03:57:30;5.83;;;4.80;;
35578;SDS011;21687;48.900;9.188;2022-08-25T03:59:57;5.03;;;4.50;;
35578;SDS011;21687;48.900;9.188;2022-08-25T04:02:23;4.90;;;4.50;;
35578;SDS011;21687;48.900;9.188;2022-08-25T04:04:49;5.43;;;4.80;;
35578;SDS011;21687;48.900;9.188;2022-08-25T04:07:16;6.27;;;4.67;;
35578;SDS011;21687;48.900;9.188;2022-08-25T04:09:42;5.47;;;4.90;;
35578;SDS011;21687;48.900;9.188;2022-08-25T04:12:09;4.93;;;4.43;;
35578;SDS011;21687;48.900;9.188;2022-08-25T04:14:35;5.63;;;4.73;;
35578;SDS011;21687;48.900;9.188;2022-08-25T04:17:02;5.37;;;4.67;;
35578;SDS011;21687;48.900;9.188;2022-08-25T04:19:28;6.07;;;5.17;;
35578;SDS011;21687;48.900;9.188;2022-08-25T04:21:55;5.67;;;5.10;;
35578;SDS011;21687;48.900;9.188;2022-08-25T04:24:21;5.47;;;4.57;;
35578;SDS011;21687;48.900;9.188;2022-08-25T04:26:48;5.67;;;5.10;;
35578;SDS011;21687;48.900;9.188;2022-08-25T04:29:17;5.47;;;4.97;;
35578;SDS011;21687;48.900;9.188;2022-08-25T04:31:45;5.07;;;4.57;;
35578;SDS011;21687;48.900;9.188;2022-08-25T04:34:14;5.57;;;4.80;;
35578;SDS011;21687;48.900;9.188;2022-08-25T04:36:42;5.23;;;4.73;;
35578;SDS011;21687;48.900;9.188;2022-08-25T04:39:08;5.63;;;5.07;;
35578;SDS011;21687;48.900;9.188;2022-08-25T04:41:34;5.33;;;4.83;;
35578;SDS011;21687;48.900;9.188;2022-08-25T04:44:01;5.23;;;4.73;;
35578;SDS011;21687;48.900;9.188;2022-08-25T04:46:28;5.60;;;5.07;;
35578;SDS011;21687;48.900;9.188;2022-08-25T04:48:57;5.73;;;4.80;;
35578;SDS011;21687;48.900;9.188;2022-08-25T04:51:26;6.73;;;5.43;;
35578;SDS011;21687;48.900;9.188;2022-08-25T04:54:02;6.10;;;5.00;;
35578;SDS011;21687;48.900;9.188;2022-08-25T04:56:30;6.90;;;5.93;;
35578;SDS011;21687;48.900;9.188;2022-08-25T04:59:01;6.07;;;5.47;;
35578;SDS011;21687;48.900;9.188;2022-08-25T05:01:32;6.87;;;5.97;;
35578;SDS011;21687;48.900;9.188;2022-08-25T05:04:00;7.67;;;6.40;;
35578;SDS011;21687;48.900;9.188;2022-08-25T05:06:28;6.73;;;5.67;;
35578;SDS011;21687;48.900;9.188;2022-08-25T05:08:55;6.10;;;5.50;;
35578;SDS011;21687;48.900;9.188;2022-08-25T05:11:22;6.93;;;5.67;;
35578;SDS011;21687;48.900;9.188;2022-08-25T05:13:50;6.97;;;5.40;;
35578;SDS011;21687;48.900;9.188;2022-08-25T05:16:17;8.43;;;5.80;;
35578;SDS011;21687;48.900;9.188;2022-08-25T05:18:44;7.27;;;5.57;;
35578;SDS011;21687;48.900;9.188;2022-08-25T05:21:12;6.00;;;5.40;;
35578;SDS011;21687;48.900;9.188;2022-08-25T05:23:41;9.33;;;5.90;;
35578;SDS011;21687;48.900;9.188;2022-08-25T05:26:09;6.53;;;5.93;;
35578;SDS011;21687;48.900;9.188;2022-08-25T05:28:46;10.17;;;6.40;;
35578;SDS011;21687;48.900;9.188;2022-08-25T05:31:14;5.90;;;5.30;;
35578;SDS011;21687;48.900;9.188;2022-08-25T05:33:41;5.77;;;5.23;;
35578;SDS011;21687;48.900;9.188;2022-08-25T05:36:08;8.30;;;5.83;;
35578;SDS011;21687;48.900;9.188;2022-08-25T05:38:37;5.97;;;5.37;;
35578;SDS011;21687;48.900;9.188;2022-08-25T05:41:06;6.07;;;5.50;;
35578;SDS011;21687;48.900;9.188;2022-08-25T05:43:38;6.43;;;5.80;;
35578;SDS011;21687;48.900;9.188;2022-08-25T05:46:05;6.47;;;5.87;;
35578;SDS011;21687;48.900;9.188;2022-08-25T05:48:32;8.67;;;7.03;;
35578;SDS011;21687;48.900;9.188;2022-08-25T05:51:00;7.37;;;6.10;;
35578;SDS011;21687;48.900;9.188;2022-08-25T05:53:28;10.33;;;6.00;;
35578;SDS011;21687;48.900;9.188;2022-08-25T05:55:55;8.30;;;6.53;;
35578;SDS011;21687;48.900;9.188;2022-08-25T05:58:23;6.53;;;5.50;;
35578;SDS011;21687;48.900;9.188;2022-08-25T06:00:52;8.10;;;6.60;;
35578;SDS011;21687;48.900;9.188;2022-08-25T06:03:19;8.30;;;6.17;;
35578;SDS011;21687;48.900;9.188;2022-08-25T06:05:46;7.67;;;5.87;;
35578;SDS011;21687;48.900;9.188;2022-08-25T06:08:13;6.43;;;5.43;;
35578;SDS011;21687;48.900;9.188;2022-08-25T06:10:40;6.60;;;6.00;;
35578;SDS011;21687;48.900;9.188;2022-08-25T06:13:07;6.60;;;5.20;;
35578;SDS011;21687;48.900;9.188;2022-08-25T06:15:34;7.77;;;5.83;;
35578;SDS011;21687;48.900;9.188;2022-08-25T06:18:00;7.40;;;6.00;;
35578;SDS011;21687;48.900;9.188;2022-08-25T06:20:28;6.90;;;6.20;;
35578;SDS011;21687;48.900;9.188;2022-08-25T06:22:55;7.70;;;5.97;;
35578;SDS011;21687;48.900;9.188;2022-08-25T06:25:23;7.87;;;6.37;;
35578;SDS011;21687;48.900;9.188;2022-08-25T06:27:50;8.33;;;6.20;;
35578;SDS011;21687;48.900;9.188;2022-08-25T06:30:18;7.10;;;6.20;;
35578;SDS011;21687;48.900;9.188;2022-08-25T06:32:46;5.83;;;5.23;;
35578;SDS011;21687;48.900;9.188;2022-08-25T06:35:14;6.97;;;5.50;;
35578;SDS011;21687;48.900;9.188;2022-08-25T06:37:43;7.07;;;6.37;;
35578;SDS011;21687;48.900;9.188;2022-08-25T06:40:10;7.03;;;5.67;;
35578;SDS011;21687;48.900;9.188;2022-08-25T06:42:38;6.47;;;5.40;;
35578;SDS011;21687;48.900;9.188;2022-08-25T06:45:05;6.10;;;5.50;;
35578;SDS011;21687;48.900;9.188;2022-08-25T06:47:32;7.10;;;5.77;;
35578;SDS011;21687;48.900;9.188;2022-08-25T06:49:58;6.03;;;5.43;;
35578;SDS011;21687;48.900;9.188;2022-08-25T06:52:25;6.63;;;4.90;;
35578;SDS011;21687;48.900;9.188;2022-08-25T06:54:51;5.03;;;4.53;;
35578;SDS011;21687;48.900;9.188;2022-08-25T06:57:21;5.07;;;4.57;;
35578;SDS011;21687;48.900;9.188;2022-08-25T06:59:47;6.47;;;4.90;;
35578;SDS011;21687;48.900;9.188;2022-08-25T07:02:14;5.53;;;4.97;;
35578;SDS011;21687;48.900;9.188;2022-08-25T07:04:40;4.60;;;4.10;;
35578;SDS011;21687;48.900;9.188;2022-08-25T07:07:06;5.90;;;4.63;;
35578;SDS011;21687;48.900;9.188;2022-08-25T07:09:33;5.67;;;4.77;;
35578;SDS011;21687;48.900;9.188;2022-08-25T07:11:59;6.40;;;4.40;;
35578;SDS011;21687;48.900;9.188;2022-08-25T07:14:28;5.60;;;4.30;;
35578;SDS011;21687;48.900;9.188;2022-08-25T07:16:58;5.67;;;4.97;;
35578;SDS011;21687;48.900;9.188;2022-08-25T07:19:24;5.20;;;4.70;;
35578;SDS011;21687;48.900;9.188;2022-08-25T07:21:51;5.23;;;4.73;;
35578;SDS011;21687;48.900;9.188;2022-08-25T07:24:18;5.50;;;4.47;;
35578;SDS011;21687;48.900;9.188;2022-08-25T07:26:46;5.10;;;4.60;;
35578;SDS011;21687;48.900;9.188;2022-08-25T07:29:14;4.87;;;4.37;;
35578;SDS011;21687;48.900;9.188;2022-08-25T07:31:47;5.63;;;4.17;;
35578;SDS011;21687;48.900;9.188;2022-08-25T07:34:14;4.77;;;4.23;;
35578;SDS011;21687;48.900;9.188;2022-08-25T07:36:59;5.23;;;4.63;;
35578;SDS011;21687;48.900;9.188;2022-08-25T07:39:28;5.00;;;4.47;;
35578;SDS011;21687;48.900;9.188;2022-08-25T07:41:55;5.00;;;4.60;;
35578;SDS011;21687;48.900;9.188;2022-08-25T07:44:22;6.90;;;4.67;;
35578;SDS011;21687;48.900;9.188;2022-08-25T07:46:49;6.60;;;4.80;;
35578;SDS011;21687;48.900;9.188;2022-08-25T07:49:16;6.33;;;4.17;;
35578;SDS011;21687;48.900;9.188;2022-08-25T07:51:44;5.23;;;4.37;;
35578;SDS011;21687;48.900;9.188;2022-08-25T07:54:11;7.70;;;4.50;;
35578;SDS011;21687;48.900;9.188;2022-08-25T07:56:37;4.40;;;4.10;;
35578;SDS011;21687;48.900;9.188;2022-08-25T07:59:08;4.93;;;4.53;;
35578;SDS011;21687;48.900;9.188;2022-08-25T08:01:35;5.67;;;4.30;;
35578;SDS011;21687;48.900;9.188;2022-08-25T08:04:02;5.07;;;4.57;;
35578;SDS011;21687;48.900;9.188;2022-08-25T08:06:28;5.30;;;4.80;;
35578;SDS011;21687;48.900;9.188;2022-08-25T08:08:55;5.10;;;4.60;;
35578;SDS011;21687;48.900;9.188;2022-08-25T08:13:51;6.30;;;4.37;;
35578;SDS011;21687;48.900;9.188;2022-08-25T08:16:19;4.63;;;4.23;;
35578;SDS011;21687;48.900;9.188;2022-08-25T08:18:47;4.90;;;4.03;;
35578;SDS011;21687;48.900;9.188;2022-08-25T08:21:18;4.73;;;4.30;;
35578;SDS011;21687;48.900;9.188;2022-08-25T08:23:50;4.90;;;4.50;;
35578;SDS011;21687;48.900;9.188;2022-08-25T08:26:18;4.80;;;4.40;;
35578;SDS011;21687;48.900;9.188;2022-08-25T08:28:45;5.10;;;4.70;;
35578;SDS011;21687;48.900;9.188;2022-08-25T08:31:11;5.57;;;4.50;;
35578;SDS011;21687;48.900;9.188;2022-08-25T08:33:38;5.20;;;4.70;;
35578;SDS011;21687;48.900;9.188;2022-08-25T08:36:05;4.80;;;4.27;;
35578;SDS011;21687;48.900;9.188;2022-08-25T08:38:35;6.90;;;4.37;;
35578;SDS011;21687;48.900;9.188;2022-08-25T08:44:26;4.70;;;4.30;;
35578;SDS011;21687;48.900;9.188;2022-08-25T08:52:23;6.90;;;4.37;;
35578;SDS011;21687;48.900;9.188;2022-08-25T08:55:30;4.87;;;4.37;;
35578;SDS011;21687;48.900;9.188;2022-08-25T08:58:00;4.50;;;4.10;;
35578;SDS011;21687;48.900;9.188;2022-08-25T09:00:45;4.83;;;4.30;;
35578;SDS011;21687;48.900;9.188;2022-08-25T09:03:19;5.00;;;4.50;;
35578;SDS011;21687;48.900;9.188;2022-08-25T09:06:00;4.73;;;4.10;;
35578;SDS011;21687;48.900;9.188;2022-08-25T09:08:29;4.70;;;3.73;;
35578;SDS011;21687;48.900;9.188;2022-08-25T09:11:00;4.10;;;3.73;;
35578;SDS011;21687;48.900;9.188;2022-08-25T09:13:35;4.07;;;3.73;;
35578;SDS011;21687;48.900;9.188;2022-08-25T09:16:22;3.67;;;3.40;;
35578;SDS011;21687;48.900;9.188;2022-08-25T09:22:16;5.37;;;3.73;;
35578;SDS011;21687;48.900;9.188;2022-08-25T09:30:16;4.27;;;3.87;;
35578;SDS011;21687;48.900;9.188;2022-08-25T09:32:51;4.73;;;3.77;;
35578;SDS011;21687;48.900;9.188;2022-08-25T09:35:27;4.17;;;3.87;;
35578;SDS011;21687;48.900;9.188;2022-08-25T09:37:59;4.40;;;3.97;;
35578;SDS011;21687;48.900;9.188;2022-08-25T09:40:40;3.80;;;3.50;;
35578;SDS011;21687;48.900;9.188;2022-08-25T09:43:20;4.23;;;3.70;;
35578;SDS011;21687;48.900;9.188;2022-08-25T09:45:48;4.33;;;3.93;;
35578;SDS011;21687;48.900;9.188;2022-08-25T09:48:44;4.20;;;3.80;;
35578;SDS011;21687;48.900;9.188;2022-08-25T09:51:24;7.50;;;4.10;;
35578;SDS011;21687;48.900;9.188;2022-08-25T09:53:56;4.43;;;4.03;;
35578;SDS011;21687;48.900;9.188;2022-08-25T09:56:28;5.13;;;4.50;;
35578;SDS011;21687;48.900;9.188;2022-08-25T09:59:17;4.10;;;3.70;;
35578;SDS011;21687;48.900;9.188;2022-08-25T10:01:48;4.07;;;3.70;;
35578;SDS011;21687;48.900;9.188;2022-08-25T10:04:36;3.90;;;3.60;;
35578;SDS011;21687;48.900;9.188;2022-08-25T10:07:17;5.17;;;3.93;;
35578;SDS011;21687;48.900;9.188;2022-08-25T10:09:59;4.43;;;3.43;;
35578;SDS011;21687;48.900;9.188;2022-08-25T10:12:37;3.73;;;3.43;;
35578;SDS011;21687;48.900;9.188;2022-08-25T10:15:15;4.40;;;4.00;;
35578;SDS011;21687;48.900;9.188;2022-08-25T10:21:08;4.40;;;4.00;;
35578;SDS011;21687;48.900;9.188;2022-08-25T10:23:39;4.30;;;3.97;;
35578;SDS011;21687;48.900;9.188;2022-08-25T10:26:10;4.20;;;3.60;;
35578;SDS011;21687;48.900;9.188;2022-08-25T10:31:39;3.90;;;3.50;;
35578;SDS011;21687;48.900;9.188;2022-08-25T10:42:51;4.33;;;3.70;;
35578;SDS011;21687;48.900;9.188;2022-08-25T10:45:31;4.40;;;4.00;;
35578;SDS011;21687;48.900;9.188;2022-08-25T10:48:11;4.00;;;3.70;;
35578;SDS011;21687;48.900;9.188;2022-08-25T10:51:07;5.03;;;3.63;;
35578;SDS011;21687;48.900;9.188;2022-08-25T10:53:49;4.13;;;3.33;;
35578;SDS011;21687;48.900;9.188;2022-08-25T10:56:42;4.00;;;3.60;;
35578;SDS011;21687;48.900;9.188;2022-08-25T11:02:29;3.43;;;3.13;;
35578;SDS011;21687;48.900;9.188;2022-08-25T11:07:44;4.77;;;3.80;;
35578;SDS011;21687;48.900;9.188;2022-08-25T11:10:24;5.10;;;3.70;;
35578;SDS011;21687;48.900;9.188;2022-08-25T11:13:02;3.80;;;3.50;;
35578;SDS011;21687;48.900;9.188;2022-08-25T11:18:27;4.23;;;3.83;;
35578;SDS011;21687;48.900;9.188;2022-08-25T11:26:16;4.20;;;3.60;;
35578;SDS011;21687;48.900;9.188;2022-08-25T11:28:57;3.77;;;3.37;;
35578;SDS011;21687;48.900;9.188;2022-08-25T11:31:52;3.57;;;3.27;;
35578;SDS011;21687;48.900;9.188;2022-08-25T11:34:19;4.57;;;4.17;;
35578;SDS011;21687;48.900;9.188;2022-08-25T11:36:51;3.57;;;3.20;;
35578;SDS011;21687;48.900;9.188;2022-08-25T11:45:43;3.97;;;3.60;;
35578;SDS011;21687;48.900;9.188;2022-08-25T11:48:17;7.23;;;3.83;;
35578;SDS011;21687;48.900;9.188;2022-08-25T11:51:02;4.00;;;3.70;;
35578;SDS011;21687;48.900;9.188;2022-08-25T11:53:40;3.70;;;3.40;;
35578;SDS011;21687;48.900;9.188;2022-08-25T11:56:09;3.60;;;3.27;;
35578;SDS011;21687;48.900;9.188;2022-08-25T11:58:50;4.40;;;4.00;;
35578;SDS011;21687;48.900;9.188;2022-08-25T12:18:41;3.27;;;3.07;;
35578;SDS011;21687;48.900;9.188;2022-08-25T12:23:30;3.63;;;3.23;;
35578;SDS011;21687;48.900;9.188;2022-08-25T12:26:11;4.03;;;3.50;;
35578;SDS011;21687;48.900;9.188;2022-08-25T12:28:47;3.60;;;3.30;;
35578;SDS011;21687;48.900;9.188;2022-08-25T12:36:40;3.50;;;3.20;;
35578;SDS011;21687;48.900;9.188;2022-08-25T12:39:22;3.00;;;2.80;;
35578;SDS011;21687;48.900;9.188;2022-08-25T12:41:58;3.17;;;2.90;;
35578;SDS011;21687;48.900;9.188;2022-08-25T12:44:46;3.83;;;2.93;;
35578;SDS011;21687;48.900;9.188;2022-08-25T12:47:31;3.30;;;2.97;;
35578;SDS011;21687;48.900;9.188;2022-08-25T12:56:02;3.00;;;2.80;;
35578;SDS011;21687;48.900;9.188;2022-08-25T12:58:35;2.83;;;2.53;;
35578;SDS011;21687;48.900;9.188;2022-08-25T13:04:02;5.80;;;2.90;;
35578;SDS011;21687;48.900;9.188;2022-08-25T13:07:36;3.10;;;2.90;;
35578;SDS011;21687;48.900;9.188;2022-08-25T13:10:07;3.33;;;2.97;;
35578;SDS011;21687;48.900;9.188;2022-08-25T13:15:32;3.20;;;2.60;;
35578;SDS011;21687;48.900;9.188;2022-08-25T13:18:24;3.53;;;2.53;;
35578;SDS011;21687;48.900;9.188;2022-08-25T13:23:44;2.97;;;2.77;;
35578;SDS011;21687;48.900;9.188;2022-08-25T13:26:14;3.47;;;3.03;;
35578;SDS011;21687;48.900;9.188;2022-08-25T13:28:54;3.00;;;2.80;;
35578;SDS011;21687;48.900;9.188;2022-08-25T13:31:23;2.77;;;2.63;;
35578;SDS011;21687;48.900;9.188;2022-08-25T13:33:54;3.07;;;2.87;;
35578;SDS011;21687;48.900;9.188;2022-08-25T13:36:26;2.90;;;2.70;;
35578;SDS011;21687;48.900;9.188;2022-08-25T13:39:13;2.90;;;2.70;;
35578;SDS011;21687;48.900;9.188;2022-08-25T13:41:46;3.00;;;2.80;;
35578;SDS011;21687;48.900;9.188;2022-08-25T13:44:19;3.00;;;2.80;;
35578;SDS011;21687;48.900;9.188;2022-08-25T13:47:03;3.13;;;2.93;;
35578;SDS011;21687;48.900;9.188;2022-08-25T13:49:31;2.70;;;2.50;;
35578;SDS011;21687;48.900;9.188;2022-08-25T13:51:57;3.07;;;2.87;;
35578;SDS011;21687;48.900;9.188;2022-08-25T13:54:29;2.60;;;2.40;;
35578;SDS011;21687;48.900;9.188;2022-08-25T13:57:06;2.63;;;2.43;;
35578;SDS011;21687;48.900;9.188;2022-08-25T13:59:47;2.17;;;2.07;;
35578;SDS011;21687;48.900;9.188;2022-08-25T14:02:41;3.70;;;2.50;;
35578;SDS011;21687;48.900;9.188;2022-08-25T14:05:12;3.47;;;2.60;;
35578;SDS011;21687;48.900;9.188;2022-08-25T14:07:51;2.90;;;2.70;;
35578;SDS011;21687;48.900;9.188;2022-08-25T14:13:13;2.50;;;2.30;;
35578;SDS011;21687;48.900;9.188;2022-08-25T14:15:44;2.40;;;2.30;;
35578;SDS011;21687;48.900;9.188;2022-08-25T14:18:17;2.47;;;2.27;;
35578;SDS011;21687;48.900;9.188;2022-08-25T14:20:52;2.57;;;2.37;;
35578;SDS011;21687;48.900;9.188;2022-08-25T14:23:21;3.07;;;2.50;;
35578;SDS011;21687;48.900;9.188;2022-08-25T14:25:51;2.37;;;2.20;;
35578;SDS011;21687;48.900;9.188;2022-08-25T14:28:19;2.43;;;2.33;;
35578;SDS011;21687;48.900;9.188;2022-08-25T14:30:49;2.80;;;2.50;;
35578;SDS011;21687;48.900;9.188;2022-08-25T14:33:30;2.57;;;2.37;;
35578;SDS011;21687;48.900;9.188;2022-08-25T14:36:01;2.40;;;2.20;;
35578;SDS011;21687;48.900;9.188;2022-08-25T14:38:29;1.97;;;1.87;;
35578;SDS011;21687;48.900;9.188;2022-08-25T14:40:55;2.40;;;2.20;;
35578;SDS011;21687;48.900;9.188;2022-08-25T14:43:21;2.50;;;2.30;;
35578;SDS011;21687;48.900;9.188;2022-08-25T14:45:48;5.50;;;2.37;;
35578;SDS011;21687;48.900;9.188;2022-08-25T14:48:27;2.33;;;2.13;;
35578;SDS011;21687;48.900;9.188;2022-08-25T14:50:57;2.83;;;2.47;;
35578;SDS011;21687;48.900;9.188;2022-08-25T14:53:25;3.73;;;2.57;;
35578;SDS011;21687;48.900;9.188;2022-08-25T14:55:51;2.73;;;2.47;;
35578;SDS011;21687;48.900;9.188;2022-08-25T14:58:22;2.33;;;2.13;;
35578;SDS011;21687;48.900;9.188;2022-08-25T15:00:48;2.57;;;2.27;;
35578;SDS011;21687;48.900;9.188;2022-08-25T15:03:16;2.60;;;2.17;;
35578;SDS011;21687;48.900;9.188;2022-08-25T15:05:53;3.10;;;2.50;;
35578;SDS011;21687;48.900;9.188;2022-08-25T15:08:19;2.53;;;2.33;;
35578;SDS011;21687;48.900;9.188;2022-08-25T15:11:04;2.73;;;2.53;;
35578;SDS011;21687;48.900;9.188;2022-08-25T15:13:31;2.70;;;2.50;;
35578;SDS011;21687;48.900;9.188;2022-08-25T15:15:57;2.60;;;2.40;;
35578;SDS011;21687;48.900;9.188;2022-08-25T15:18:23;2.50;;;2.30;;
35578;SDS011;21687;48.900;9.188;2022-08-25T15:20:50;2.40;;;2.20;;
35578;SDS011;21687;48.900;9.188;2022-08-25T15:23:17;3.40;;;2.50;;
35578;SDS011;21687;48.900;9.188;2022-08-25T15:25:44;2.20;;;2.10;;
35578;SDS011;21687;48.900;9.188;2022-08-25T15:28:11;2.80;;;2.60;;
35578;SDS011;21687;48.900;9.188;2022-08-25T15:30:39;2.83;;;2.50;;
35578;SDS011;21687;48.900;9.188;2022-08-25T15:33:05;2.63;;;2.20;;
35578;SDS011;21687;48.900;9.188;2022-08-25T15:35:32;2.47;;;2.27;;
35578;SDS011;21687;48.900;9.188;2022-08-25T15:37:59;2.23;;;2.13;;
35578;SDS011;21687;48.900;9.188;2022-08-25T15:40:26;2.10;;;2.00;;
35578;SDS011;21687;48.900;9.188;2022-08-25T15:42:53;2.40;;;2.20;;
35578;SDS011;21687;48.900;9.188;2022-08-25T15:45:19;2.30;;;2.10;;
35578;SDS011;21687;48.900;9.188;2022-08-25T15:47:46;2.27;;;2.17;;
35578;SDS011;21687;48.900;9.188;2022-08-25T15:50:14;2.80;;;2.60;;
35578;SDS011;21687;48.900;9.188;2022-08-25T15:52:43;2.30;;;2.20;;
35578;SDS011;21687;48.900;9.188;2022-08-25T15:55:10;3.27;;;3.07;;
35578;SDS011;21687;48.900;9.188;2022-08-25T15:57:37;2.07;;;1.97;;
35578;SDS011;21687;48.900;9.188;2022-08-25T16:00:04;2.67;;;2.27;;
35578;SDS011;21687;48.900;9.188;2022-08-25T16:02:34;2.20;;;2.10;;
35578;SDS011;21687;48.900;9.188;2022-08-25T16:05:00;2.43;;;2.23;;
35578;SDS011;21687;48.900;9.188;2022-08-25T16:07:27;3.70;;;2.30;;
35578;SDS011;21687;48.900;9.188;2022-08-25T16:09:56;2.30;;;2.20;;
35578;SDS011;21687;48.900;9.188;2022-08-25T16:12:23;3.20;;;2.40;;
35578;SDS011;21687;48.900;9.188;2022-08-25T16:14:50;2.73;;;2.40;;
35578;SDS011;21687;48.900;9.188;2022-08-25T16:17:17;2.60;;;2.40;;
35578;SDS011;21687;48.900;9.188;2022-08-25T16:19:44;2.60;;;2.40;;
35578;SDS011;21687;48.900;9.188;2022-08-25T16:22:10;2.87;;;2.50;;
35578;SDS011;21687;48.900;9.188;2022-08-25T16:24:41;2.43;;;2.23;;
35578;SDS011;21687;48.900;9.188;2022-08-25T16:27:11;2.77;;;2.57;;
35578;SDS011;21687;48.900;9.188;2022-08-25T16:29:39;2.20;;;2.10;;
35578;SDS011;21687;48.900;9.188;2022-08-25T16:32:07;2.57;;;2.37;;
35578;SDS011;21687;48.900;9.188;2022-08-25T16:34:34;2.63;;;2.43;;
35578;SDS011;21687;48.900;9.188;2022-08-25T16:37:01;3.53;;;2.73;;
35578;SDS011;21687;48.900;9.188;2022-08-25T16:39:28;2.40;;;2.20;;
35578;SDS011;21687;48.900;9.188;2022-08-25T16:41:54;2.73;;;2.53;;
35578;SDS011;21687;48.900;9.188;2022-08-25T16:44:21;2.43;;;2.23;;
35578;SDS011;21687;48.900;9.188;2022-08-25T16:46:48;2.90;;;2.70;;
35578;SDS011;21687;48.900;9.188;2022-08-25T16:49:17;2.33;;;2.23;;